Thunder radar more information blitzortung!


Löydät sääaseman tiedot myös:

European Weather Network

Finland Weather Exchange

Weather Underground

AWEKAS



Weather Underground säähistoriasivu

Päivittäin yhteenveto Maaliskuu 2, 2017 Yksiköt:  Molemmat    Englantilaiset   Metriset
« Edellinen Päivä
Seuraava Päivä »
Päivittäin Viikoittain Kuukausittain Vuosittain Mukautettu
  Korkea: Matala: Keskiarvo:
Lämpötila: TemperatureC °F /  -17.8 °C 0.6 °F /  -17.4 °C 1.4 °F /  -17 °C
Kastepiste: DewpointC °F /  -17.8 °C 0.1 °F /  -17.7 °C 0.8 °F /  -17.3 °C
Kosteus: Humidity % 92 % 95 %
Tuulen nopeus: WindSpeedKMH mph /  0 km/h - 1.7 mph /  2.7 km/h
Tuulenpuuska: WindSpeedGustKMH mph /  0 km/h - -
Tuuli:- - South
Ilmanpaine: PressurehPa in /  0 hPa 988.4 in /  33467.2 hPa -
Sade: 0.0 in /  0 mm    
Historical Graphs
 
 
Taulukkotiedot Maaliskuu 2, 2017
Aika Lämpötila Kastepiste Ilmanpaine Tuuli Tuulen nopeus Tuulenpuuska Kosteus Sademäärä (tunneittain)
TemperatureC °F /  -17.8 °C DewpointC °F /  -17.8 °C PressurehPa in /  0 hPa Calm     Humidity % HourlyPrecipMM in /  0 mm
00:00 2.1 °F /  -16.6 °C 1.2 °F /  -17.1 °C 989.7 in /  33511.2 hPa SSE 1.6 mph /  2.6 km/h 11.3 mph /  18.2 km/h 94 % 0.0 in /  0 mm
00:15 2.1 °F /  -16.6 °C 1.2 °F /  -17.1 °C 989.7 in /  33511.2 hPa Calm   8.0 mph /  12.9 km/h 94 % 0.0 in /  0 mm
00:30 2.1 °F /  -16.6 °C 1.2 °F /  -17.1 °C 989.7 in /  33511.2 hPa Calm   8.0 mph /  12.9 km/h 94 % 0.0 in /  0 mm
00:45 2.2 °F /  -16.6 °C 1.3 °F /  -17.1 °C 989.7 in /  33511.2 hPa SSW 1.6 mph /  2.6 km/h 11.3 mph /  18.2 km/h 94 % 0.0 in /  0 mm
01:00 2.1 °F /  -16.6 °C 1.2 °F /  -17.1 °C 989.4 in /  33501.1 hPa South 1.6 mph /  2.6 km/h 11.3 mph /  18.2 km/h 94 % 0.0 in /  0 mm
01:15 2.1 °F /  -16.6 °C 1.2 °F /  -17.1 °C 989.4 in /  33501.1 hPa Calm   6.4 mph /  10.3 km/h 94 % 0.0 in /  0 mm
01:30 2.0 °F /  -16.7 °C 1.1 °F /  -17.2 °C 989.4 in /  33501.1 hPa SSE 1.6 mph /  2.6 km/h 6.4 mph /  10.3 km/h 94 % 0.0 in /  0 mm
01:45 1.9 °F /  -16.7 °C 1.1 °F /  -17.2 °C 989.4 in /  33501.1 hPa SSE 1.6 mph /  2.6 km/h 8.0 mph /  12.9 km/h 94 % 0.0 in /  0 mm
02:00 1.9 °F /  -16.7 °C 1.1 °F /  -17.2 °C 989.1 in /  33490.9 hPa SE 1.6 mph /  2.6 km/h 8.0 mph /  12.9 km/h 94 % 0.0 in /  0 mm
02:15 1.8 °F /  -16.8 °C 1.0 °F /  -17.2 °C 989.1 in /  33490.9 hPa South 1.6 mph /  2.6 km/h 9.7 mph /  15.6 km/h 94 % 0.0 in /  0 mm
02:30 1.9 °F /  -16.7 °C 1.2 °F /  -17.1 °C 989.1 in /  33490.9 hPa South 1.6 mph /  2.6 km/h 8.0 mph /  12.9 km/h 95 % 0.0 in /  0 mm
02:45 1.9 °F /  -16.7 °C 1.2 °F /  -17.1 °C 988.7 in /  33477.4 hPa SE 1.6 mph /  2.6 km/h 8.0 mph /  12.9 km/h 95 % 0.0 in /  0 mm
03:00 1.9 °F /  -16.7 °C 1.0 °F /  -17.2 °C 988.7 in /  33477.4 hPa SE 1.6 mph /  2.6 km/h 11.3 mph /  18.2 km/h 94 % 0.0 in /  0 mm
03:15 1.8 °F /  -16.8 °C 1.1 °F /  -17.2 °C 988.7 in /  33477.4 hPa Calm   1.6 mph /  2.6 km/h 95 % 0.0 in /  0 mm
03:30 1.8 °F /  -16.8 °C 1.1 °F /  -17.2 °C 988.7 in /  33477.4 hPa Calm   3.2 mph /  5.1 km/h 95 % 0.0 in /  0 mm
03:45 1.8 °F /  -16.8 °C 1.1 °F /  -17.2 °C 988.7 in /  33477.4 hPa Calm   4.8 mph /  7.7 km/h 95 % 0.0 in /  0 mm
04:00 1.8 °F /  -16.8 °C 1.1 °F /  -17.2 °C 988.4 in /  33467.2 hPa SSE 1.6 mph /  2.6 km/h 8.0 mph /  12.9 km/h 95 % 0.0 in /  0 mm
04:15 1.8 °F /  -16.8 °C 1.1 °F /  -17.2 °C 988.4 in /  33467.2 hPa SSE 1.6 mph /  2.6 km/h 9.7 mph /  15.6 km/h 95 % 0.0 in /  0 mm
04:30 1.8 °F /  -16.8 °C 1.1 °F /  -17.2 °C 988.4 in /  33467.2 hPa SSE 1.6 mph /  2.6 km/h 9.7 mph /  15.6 km/h 95 % 0.0 in /  0 mm
04:45 1.8 °F /  -16.8 °C 1.1 °F /  -17.2 °C 988.4 in /  33467.2 hPa SSW 1.6 mph /  2.6 km/h 6.4 mph /  10.3 km/h 95 % 0.0 in /  0 mm
05:00 1.9 °F /  -16.7 °C 1.2 °F /  -17.1 °C 988.4 in /  33467.2 hPa Calm   8.0 mph /  12.9 km/h 95 % 0.0 in /  0 mm
05:15 1.8 °F /  -16.8 °C 1.1 °F /  -17.2 °C 988.4 in /  33467.2 hPa SSE 1.6 mph /  2.6 km/h 11.3 mph /  18.2 km/h 95 % 0.0 in /  0 mm
05:30 1.8 °F /  -16.8 °C 1.0 °F /  -17.2 °C 988.4 in /  33467.2 hPa SSE 4.8 mph /  7.7 km/h 14.5 mph /  23.3 km/h 94 % 0.0 in /  0 mm
05:45 1.8 °F /  -16.8 °C 0.9 °F /  -17.3 °C 988.4 in /  33467.2 hPa SE 1.6 mph /  2.6 km/h 11.3 mph /  18.2 km/h 94 % 0.0 in /  0 mm
06:00 1.8 °F /  -16.8 °C 0.9 °F /  -17.3 °C 988.4 in /  33467.2 hPa South 1.6 mph /  2.6 km/h 11.3 mph /  18.2 km/h 94 % 0.0 in /  0 mm
06:15 1.7 °F /  -16.8 °C 1.0 °F /  -17.2 °C 988.4 in /  33467.2 hPa SSE 3.2 mph /  5.1 km/h 9.7 mph /  15.6 km/h 95 % 0.0 in /  0 mm
06:30 1.7 °F /  -16.8 °C 1.0 °F /  -17.2 °C 988.4 in /  33467.2 hPa SSW 1.6 mph /  2.6 km/h 6.4 mph /  10.3 km/h 95 % 0.0 in /  0 mm
06:45 1.6 °F /  -16.9 °C 0.9 °F /  -17.3 °C 988.4 in /  33467.2 hPa SSE 1.6 mph /  2.6 km/h 9.7 mph /  15.6 km/h 95 % 0.0 in /  0 mm
07:00 1.6 °F /  -16.9 °C 0.8 °F /  -17.3 °C 988.4 in /  33467.2 hPa Calm   3.2 mph /  5.1 km/h 95 % 0.0 in /  0 mm
07:15 1.6 °F /  -16.9 °C 0.8 °F /  -17.3 °C 988.4 in /  33467.2 hPa Calm   4.8 mph /  7.7 km/h 95 % 0.0 in /  0 mm
07:30 1.6 °F /  -16.9 °C 0.8 °F /  -17.3 °C 988.4 in /  33467.2 hPa South 1.6 mph /  2.6 km/h 6.4 mph /  10.3 km/h 95 % 0.0 in /  0 mm
07:45 1.6 °F /  -16.9 °C 0.8 °F /  -17.3 °C 988.4 in /  33467.2 hPa Calm   3.2 mph /  5.1 km/h 95 % 0.0 in /  0 mm
08:00 1.5 °F /  -16.9 °C 0.8 °F /  -17.3 °C 988.4 in /  33467.2 hPa Calm   3.2 mph /  5.1 km/h 95 % 0.0 in /  0 mm
08:15 1.4 °F /  -17 °C 0.7 °F /  -17.4 °C 988.4 in /  33467.2 hPa Calm   3.2 mph /  5.1 km/h 95 % 0.0 in /  0 mm
08:30 1.4 °F /  -17 °C 0.7 °F /  -17.4 °C 988.4 in /  33467.2 hPa Calm   3.2 mph /  5.1 km/h 95 % 0.0 in /  0 mm
08:45 1.4 °F /  -17 °C 0.9 °F /  -17.3 °C 988.4 in /  33467.2 hPa Calm   6.4 mph /  10.3 km/h 96 % 0.0 in /  0 mm
09:00 1.5 °F /  -16.9 °C 0.9 °F /  -17.3 °C 988.7 in /  33477.4 hPa Calm   9.7 mph /  15.6 km/h 96 % 0.0 in /  0 mm
09:15 1.6 °F /  -16.9 °C 1.0 °F /  -17.2 °C 988.7 in /  33477.4 hPa SSE 1.6 mph /  2.6 km/h 9.7 mph /  15.6 km/h 96 % 0.0 in /  0 mm
09:30 1.6 °F /  -16.9 °C 0.8 °F /  -17.3 °C 988.7 in /  33477.4 hPa South 1.6 mph /  2.6 km/h 11.3 mph /  18.2 km/h 95 % 0.0 in /  0 mm
09:45 1.7 °F /  -16.8 °C 1.0 °F /  -17.2 °C 988.7 in /  33477.4 hPa South 1.6 mph /  2.6 km/h 11.3 mph /  18.2 km/h 95 % 0.0 in /  0 mm
10:00 1.7 °F /  -16.8 °C 1.0 °F /  -17.2 °C 989.1 in /  33490.9 hPa SSE 1.6 mph /  2.6 km/h 9.7 mph /  15.6 km/h 95 % 0.0 in /  0 mm
10:15 1.7 °F /  -16.8 °C 1.0 °F /  -17.2 °C 989.1 in /  33490.9 hPa SSE 1.6 mph /  2.6 km/h 9.7 mph /  15.6 km/h 95 % 0.0 in /  0 mm
10:30 1.8 °F /  -16.8 °C 1.1 °F /  -17.2 °C 989.1 in /  33490.9 hPa Calm   1.6 mph /  2.6 km/h 95 % 0.0 in /  0 mm
10:45 1.8 °F /  -16.8 °C 1.1 °F /  -17.2 °C 989.1 in /  33490.9 hPa Calm   1.6 mph /  2.6 km/h 95 % 0.0 in /  0 mm
11:00 1.7 °F /  -16.8 °C 1.0 °F /  -17.2 °C 989.1 in /  33490.9 hPa Calm     95 % 0.0 in /  0 mm
11:15 1.6 °F /  -16.9 °C 0.9 °F /  -17.3 °C 989.1 in /  33490.9 hPa Calm   1.6 mph /  2.6 km/h 95 % 0.0 in /  0 mm
11:30 1.7 °F /  -16.8 °C 1.2 °F /  -17.1 °C 989.1 in /  33490.9 hPa Calm   1.6 mph /  2.6 km/h 96 % 0.0 in /  0 mm
11:45 1.8 °F /  -16.8 °C 1.3 °F /  -17.1 °C 989.1 in /  33490.9 hPa Calm   1.6 mph /  2.6 km/h 96 % 0.0 in /  0 mm
12:00 1.9 °F /  -16.7 °C 1.3 °F /  -17.1 °C 989.1 in /  33490.9 hPa Calm   6.4 mph /  10.3 km/h 96 % 0.0 in /  0 mm
12:15 1.9 °F /  -16.7 °C 1.4 °F /  -17 °C 989.1 in /  33490.9 hPa Calm   3.2 mph /  5.1 km/h 96 % 0.0 in /  0 mm
12:30 1.9 °F /  -16.7 °C 1.3 °F /  -17.1 °C 989.1 in /  33490.9 hPa Calm   6.4 mph /  10.3 km/h 96 % 0.0 in /  0 mm
12:45 1.8 °F /  -16.8 °C 1.3 °F /  -17.1 °C 989.1 in /  33490.9 hPa Calm   3.2 mph /  5.1 km/h 96 % 0.0 in /  0 mm
13:00 1.9 °F /  -16.7 °C 1.4 °F /  -17 °C 989.1 in /  33490.9 hPa Calm   1.6 mph /  2.6 km/h 96 % 0.0 in /  0 mm
13:15 2.2 °F /  -16.6 °C 1.6 °F /  -16.9 °C 989.1 in /  33490.9 hPa Calm   9.7 mph /  15.6 km/h 96 % 0.0 in /  0 mm
13:30 2.3 °F /  -16.5 °C 1.6 °F /  -16.9 °C 989.1 in /  33490.9 hPa SSE 3.2 mph /  5.1 km/h 8.0 mph /  12.9 km/h 95 % 0.0 in /  0 mm
13:45 2.7 °F /  -16.3 °C 1.8 °F /  -16.8 °C 989.1 in /  33490.9 hPa SSW 4.8 mph /  7.7 km/h 11.3 mph /  18.2 km/h 94 % 0.0 in /  0 mm
14:00 2.4 °F /  -16.4 °C 1.3 °F /  -17.1 °C 989.1 in /  33490.9 hPa SSW 4.8 mph /  7.7 km/h 14.5 mph /  23.3 km/h 92 % 0.0 in /  0 mm
14:15 2.0 °F /  -16.7 °C 1.1 °F /  -17.2 °C 989.1 in /  33490.9 hPa SSW 3.2 mph /  5.1 km/h 9.7 mph /  15.6 km/h 94 % 0.0 in /  0 mm
14:30 1.8 °F /  -16.8 °C 0.9 °F /  -17.3 °C 989.1 in /  33490.9 hPa SSW 4.8 mph /  7.7 km/h 8.0 mph /  12.9 km/h 94 % 0.0 in /  0 mm
14:45 1.6 °F /  -16.9 °C 0.7 °F /  -17.4 °C 989.1 in /  33490.9 hPa Calm     94 % 0.0 in /  0 mm
15:00 1.3 °F /  -17.1 °C 0.6 °F /  -17.4 °C 989.4 in /  33501.1 hPa Calm     95 % 0.0 in /  0 mm
15:15 1.2 °F /  -17.1 °C 0.5 °F /  -17.5 °C 989.4 in /  33501.1 hPa Calm     95 % 0.0 in /  0 mm
15:30 1.4 °F /  -17 °C 0.8 °F /  -17.3 °C 989.1 in /  33490.9 hPa Calm   6.4 mph /  10.3 km/h 96 % 0.0 in /  0 mm
15:45 1.6 °F /  -16.9 °C 1.0 °F /  -17.2 °C 989.1 in /  33490.9 hPa South 3.2 mph /  5.1 km/h 9.7 mph /  15.6 km/h 96 % 0.0 in /  0 mm
16:00 1.4 °F /  -17 °C 0.9 °F /  -17.3 °C 989.4 in /  33501.1 hPa SSW 3.2 mph /  5.1 km/h 9.7 mph /  15.6 km/h 96 % 0.0 in /  0 mm
16:15 1.3 °F /  -17.1 °C 0.8 °F /  -17.3 °C 989.4 in /  33501.1 hPa SSW 3.2 mph /  5.1 km/h 8.0 mph /  12.9 km/h 96 % 0.0 in /  0 mm
16:30 1.3 °F /  -17.1 °C 0.7 °F /  -17.4 °C 989.4 in /  33501.1 hPa SSW 3.2 mph /  5.1 km/h 11.3 mph /  18.2 km/h 96 % 0.0 in /  0 mm
16:45 1.1 °F /  -17.2 °C 0.5 °F /  -17.5 °C 989.4 in /  33501.1 hPa South 3.2 mph /  5.1 km/h 12.9 mph /  20.8 km/h 96 % 0.0 in /  0 mm
17:00 1.0 °F /  -17.2 °C 1.0 °F /  -17.2 °C 989.7 in /  33511.2 hPa SSW 1.6 mph /  2.6 km/h 6.4 mph /  10.3 km/h 100 % 0.0 in /  0 mm
17:15 1.0 °F /  -17.2 °C 0.4 °F /  -17.6 °C 989.7 in /  33511.2 hPa SSW 1.6 mph /  2.6 km/h 4.8 mph /  7.7 km/h 96 % 0.0 in /  0 mm
17:30 1.0 °F /  -17.2 °C 0.4 °F /  -17.6 °C 989.7 in /  33511.2 hPa Calm   4.8 mph /  7.7 km/h 96 % 0.0 in /  0 mm
17:45 0.9 °F /  -17.3 °C 0.4 °F /  -17.6 °C 989.7 in /  33511.2 hPa SSW 1.6 mph /  2.6 km/h 6.4 mph /  10.3 km/h 96 % 0.0 in /  0 mm
18:00 0.8 °F /  -17.3 °C 0.3 °F /  -17.6 °C 990.1 in /  33524.8 hPa SSW 1.6 mph /  2.6 km/h 6.4 mph /  10.3 km/h 96 % 0.0 in /  0 mm
18:15 0.7 °F /  -17.4 °C 0.1 °F /  -17.7 °C 990.1 in /  33524.8 hPa Calm   4.8 mph /  7.7 km/h 96 % 0.0 in /  0 mm
18:30 0.6 °F /  -17.4 °C 0.2 °F /  -17.7 °C 990.1 in /  33524.8 hPa SSW 1.6 mph /  2.6 km/h 4.8 mph /  7.7 km/h 97 % 0.0 in /  0 mm
18:45 0.6 °F /  -17.4 °C 0.2 °F /  -17.7 °C 990.4 in /  33534.9 hPa Calm   4.8 mph /  7.7 km/h 97 % 0.0 in /  0 mm
19:00 0.6 °F /  -17.4 °C 0.2 °F /  -17.7 °C 990.4 in /  33534.9 hPa SSW 1.6 mph /  2.6 km/h 8.0 mph /  12.9 km/h 97 % 0.0 in /  0 mm
19:15 0.6 °F /  -17.4 °C 0.2 °F /  -17.7 °C 990.4 in /  33534.9 hPa SSW 1.6 mph /  2.6 km/h 8.0 mph /  12.9 km/h 97 % 0.0 in /  0 mm
19:30 0.6 °F /  -17.4 °C 0.2 °F /  -17.7 °C 990.7 in /  33545.1 hPa SSW 1.6 mph /  2.6 km/h 8.0 mph /  12.9 km/h 97 % 0.0 in /  0 mm
19:45 0.7 °F /  -17.4 °C 0.2 °F /  -17.7 °C 990.7 in /  33545.1 hPa SW 3.2 mph /  5.1 km/h 11.3 mph /  18.2 km/h 97 % 0.0 in /  0 mm
20:00 0.6 °F /  -17.4 °C 0.2 °F /  -17.7 °C 990.7 in /  33545.1 hPa SSW 1.6 mph /  2.6 km/h 9.7 mph /  15.6 km/h 97 % 0.0 in /  0 mm
20:15 0.6 °F /  -17.4 °C 0.2 °F /  -17.7 °C 990.7 in /  33545.1 hPa SSW 3.2 mph /  5.1 km/h 9.7 mph /  15.6 km/h 97 % 0.0 in /  0 mm
20:30 0.7 °F /  -17.4 °C 0.2 °F /  -17.7 °C 991.1 in /  33558.6 hPa SSW 3.2 mph /  5.1 km/h 6.4 mph /  10.3 km/h 97 % 0.0 in /  0 mm
20:45 0.7 °F /  -17.4 °C 0.2 °F /  -17.7 °C 991.1 in /  33558.6 hPa SSW 4.8 mph /  7.7 km/h 14.5 mph /  23.3 km/h 97 % 0.0 in /  0 mm
21:00 0.7 °F /  -17.4 °C 0.3 °F /  -17.6 °C 991.1 in /  33558.6 hPa SSW 4.8 mph /  7.7 km/h 14.5 mph /  23.3 km/h 97 % 0.0 in /  0 mm
21:15 0.7 °F /  -17.4 °C 0.3 °F /  -17.6 °C 991.4 in /  33568.8 hPa SSW 4.8 mph /  7.7 km/h 14.5 mph /  23.3 km/h 97 % 0.0 in /  0 mm
21:30 0.7 °F /  -17.4 °C 0.2 °F /  -17.7 °C 991.4 in /  33568.8 hPa SSW 6.4 mph /  10.3 km/h 12.9 mph /  20.8 km/h 97 % 0.0 in /  0 mm
21:45 0.7 °F /  -17.4 °C 0.2 °F /  -17.7 °C 991.4 in /  33568.8 hPa SSW 4.8 mph /  7.7 km/h 14.5 mph /  23.3 km/h 97 % 0.0 in /  0 mm
22:00 0.7 °F /  -17.4 °C 0.2 °F /  -17.7 °C 991.4 in /  33568.8 hPa SSW 3.2 mph /  5.1 km/h 9.7 mph /  15.6 km/h 97 % 0.0 in /  0 mm
22:15 0.7 °F /  -17.4 °C 0.2 °F /  -17.7 °C 991.8 in /  33582.3 hPa SSW 4.8 mph /  7.7 km/h 9.7 mph /  15.6 km/h 97 % 0.0 in /  0 mm
22:30 0.7 °F /  -17.4 °C 0.2 °F /  -17.7 °C 991.8 in /  33582.3 hPa SSW 3.2 mph /  5.1 km/h 9.7 mph /  15.6 km/h 97 % 0.0 in /  0 mm
22:45 0.7 °F /  -17.4 °C 0.2 °F /  -17.7 °C 991.8 in /  33582.3 hPa SSW 4.8 mph /  7.7 km/h 12.9 mph /  20.8 km/h 97 % 0.0 in /  0 mm
23:00 0.7 °F /  -17.4 °C 0.2 °F /  -17.7 °C 991.8 in /  33582.3 hPa SSW 4.8 mph /  7.7 km/h 11.3 mph /  18.2 km/h 97 % 0.0 in /  0 mm
23:15 0.7 °F /  -17.4 °C 0.2 °F /  -17.7 °C 991.8 in /  33582.3 hPa SSW 4.8 mph /  7.7 km/h 11.3 mph /  18.2 km/h 97 % 0.0 in /  0 mm
23:30 0.7 °F /  -17.4 °C 0.2 °F /  -17.7 °C 992.1 in /  33592.5 hPa SSW 3.2 mph /  5.1 km/h 9.7 mph /  15.6 km/h 97 % 0.0 in /  0 mm
23:45 0.7 °F /  -17.4 °C 0.2 °F /  -17.7 °C 992.1 in /  33592.5 hPa SSW 1.6 mph /  2.6 km/h 4.8 mph /  7.7 km/h 97 % 0.0 in /  0 mm
Esan sääasema
Terveisin Weather Underground - 2.75 mb

Alkuperäinen skripti  Jim McMurry - jmcmurry@mwt.net Sovitettu myös templatelle  Wim van der Kuil - Leuven-Template.eu

Laitteet joita käytämme:

Sääasema
Davis VP2

Sääasemaohjelma
Cumulus

Sääaseman tietokone
Asus EeePC

Palveluntarjoaja
Suncomet

Davis VP2

Cumulus

Asus EeePC

Suncomet